createdAt,value
2019-02-02T00:02:02.045Z,28.23
2019-02-02T00:04:34.536Z,30.40
2019-02-02T00:07:03.929Z,28.30
2019-02-02T00:09:33.569Z,27.87
2019-02-02T00:12:04.173Z,31.13
2019-02-02T00:14:37.648Z,29.02
2019-02-02T00:17:07.394Z,28.90
2019-02-02T00:19:41.122Z,28.53
2019-02-02T00:22:11.095Z,28.77
2019-02-02T00:24:41.195Z,28.40
2019-02-02T00:27:10.654Z,28.73
2019-02-02T00:29:44.627Z,28.53
2019-02-02T00:32:14.059Z,28.53
2019-02-02T00:34:43.968Z,28.67
2019-02-02T00:37:14.858Z,27.10
2019-02-02T00:39:44.224Z,29.60
2019-02-02T00:42:13.664Z,29.10
2019-02-02T00:44:43.665Z,28.75
2019-02-02T00:47:21.292Z,28.27
2019-02-02T00:49:52.460Z,27.00
2019-02-02T00:52:24.333Z,28.85
2019-02-02T00:54:53.685Z,29.73
2019-02-02T00:57:25.550Z,27.90
2019-02-02T00:59:57.091Z,28.90
2019-02-02T01:02:30.297Z,29.60
2019-02-02T01:05:04.075Z,29.50
2019-02-02T01:07:35.462Z,29.37
2019-02-02T01:10:09.397Z,28.93
2019-02-02T01:12:38.745Z,28.77
2019-02-02T01:15:09.093Z,29.82
2019-02-02T01:17:38.624Z,28.93
2019-02-02T01:20:10.262Z,29.77
2019-02-02T01:22:39.661Z,29.00
2019-02-02T01:25:14.482Z,28.25
2019-02-02T01:27:44.534Z,26.90
2019-02-02T01:30:15.093Z,28.60
2019-02-02T01:32:44.488Z,28.70
2019-02-02T01:35:16.313Z,31.67
2019-02-02T01:37:46.734Z,30.13
2019-02-02T01:40:19.960Z,29.75
2019-02-02T01:42:51.444Z,26.63
2019-02-02T01:45:24.141Z,27.23
2019-02-02T01:47:53.652Z,26.30
2019-02-02T01:50:28.936Z,28.03
2019-02-02T01:53:00.489Z,27.30
2019-02-02T01:55:30.855Z,28.40
2019-02-02T01:58:00.612Z,27.67
2019-02-02T02:00:31.633Z,28.15
2019-02-02T02:03:01.921Z,26.10
2019-02-02T02:05:31.754Z,27.43
2019-02-02T02:08:01.161Z,28.65
2019-02-02T02:10:31.887Z,27.53
2019-02-02T02:13:01.247Z,26.43
2019-02-02T02:15:31.200Z,28.90
2019-02-02T02:18:05.540Z,26.53
2019-02-02T02:20:35.609Z,28.17
2019-02-02T02:23:05.308Z,28.70
2019-02-02T02:25:34.825Z,27.50
2019-02-02T02:28:05.523Z,28.10
2019-02-02T02:30:34.926Z,26.48
2019-02-02T02:33:05.977Z,27.10
2019-02-02T02:35:35.591Z,28.00
2019-02-02T02:38:04.948Z,26.53
2019-02-02T02:40:34.949Z,27.55
2019-02-02T02:43:06.022Z,28.50
2019-02-02T02:45:35.701Z,27.73
2019-02-02T02:48:05.610Z,28.40
2019-02-02T02:50:35.087Z,26.73
2019-02-02T02:53:05.245Z,27.20
2019-02-02T02:55:34.593Z,28.73
2019-02-02T02:58:07.284Z,26.10
2019-02-02T03:00:37.054Z,26.67
2019-02-02T03:03:07.639Z,28.50
2019-02-02T03:05:40.972Z,28.17
2019-02-02T03:08:11.634Z,25.87
2019-02-02T03:10:41.917Z,27.53
2019-02-02T03:13:13.162Z,28.10
2019-02-02T03:15:42.586Z,26.90
2019-02-02T03:18:13.750Z,27.47
2019-02-02T03:20:43.281Z,27.77
2019-02-02T03:23:12.664Z,27.80
2019-02-02T03:25:42.063Z,26.45
2019-02-02T03:28:12.446Z,27.33
2019-02-02T03:30:41.908Z,27.70
2019-02-02T03:33:12.319Z,25.17
2019-02-02T03:35:43.844Z,26.60
2019-02-02T03:38:15.641Z,26.23
2019-02-02T03:40:45.020Z,26.97
2019-02-02T03:43:15.368Z,27.13
2019-02-02T03:45:45.076Z,25.77
2019-02-02T03:48:18.147Z,26.62
2019-02-02T03:50:47.956Z,26.67
2019-02-02T03:53:18.077Z,25.85
2019-02-02T03:55:47.827Z,23.97
2019-02-02T03:58:18.284Z,25.55
2019-02-02T04:00:47.681Z,26.43
2019-02-02T04:03:19.300Z,26.15
2019-02-02T04:05:51.536Z,24.60
2019-02-02T04:08:21.894Z,26.10
2019-02-02T04:10:51.313Z,26.50
2019-02-02T04:13:20.741Z,25.50
2019-02-02T04:15:53.859Z,23.92
2019-02-02T04:18:23.448Z,25.00
2019-02-02T04:20:52.947Z,25.90
2019-02-02T04:23:23.103Z,26.00
2019-02-02T04:25:52.420Z,24.33
2019-02-02T04:28:21.861Z,25.57
2019-02-02T04:30:56.001Z,24.87
2019-02-02T04:33:26.204Z,26.03
2019-02-02T04:36:15.551Z,28.00
2019-02-02T04:38:48.035Z,29.23
2019-02-02T04:41:18.389Z,28.57
2019-02-02T04:43:48.599Z,27.60
2019-02-02T04:46:18.428Z,25.90
2019-02-02T04:48:49.064Z,25.63
2019-02-02T04:51:19.232Z,26.80
2019-02-02T04:53:48.576Z,25.63
2019-02-02T04:56:18.547Z,25.63
2019-02-02T04:58:48.313Z,27.10
2019-02-02T05:01:18.433Z,26.20
2019-02-02T05:03:48.778Z,27.57
2019-02-02T05:06:24.581Z,28.32
2019-02-02T05:08:54.945Z,28.07
2019-02-02T05:11:25.282Z,28.42
2019-02-02T05:13:54.824Z,30.07
2019-02-02T05:16:26.959Z,31.40
2019-02-02T05:18:56.648Z,30.13
2019-02-02T05:21:27.884Z,27.47
2019-02-02T05:23:57.281Z,27.70
2019-02-02T05:26:33.738Z,29.90
2019-02-02T05:29:03.325Z,34.70
2019-02-02T05:31:34.484Z,32.80
2019-02-02T05:34:05.254Z,30.00
2019-02-02T05:36:36.509Z,31.52
2019-02-02T05:39:09.198Z,34.30
2019-02-02T05:41:38.560Z,37.40
2019-02-02T05:44:09.311Z,36.70
2019-02-02T05:46:39.328Z,34.50
2019-02-02T05:49:09.559Z,35.90
2019-02-02T05:51:39.696Z,37.30
2019-02-02T05:54:09.549Z,35.50
2019-02-02T05:56:40.230Z,38.30
2019-02-02T05:59:10.423Z,33.67
2019-02-02T06:01:40.655Z,32.50
2019-02-02T06:04:10.089Z,32.20
2019-02-02T06:06:39.685Z,31.60
2019-02-02T06:09:09.884Z,31.85
2019-02-02T06:11:39.416Z,33.00
2019-02-02T06:14:09.860Z,32.80
2019-02-02T06:16:39.244Z,31.60
2019-02-02T06:19:09.260Z,34.20
2019-02-02T06:21:38.773Z,36.30
2019-02-02T06:24:08.199Z,35.25
2019-02-02T06:26:37.624Z,34.23
2019-02-02T06:29:07.505Z,35.27
2019-02-02T06:31:37.536Z,35.93
2019-02-02T06:34:08.749Z,33.43
2019-02-02T06:36:40.870Z,33.05
2019-02-02T06:39:11.152Z,33.53
2019-02-02T06:41:42.094Z,33.50
2019-02-02T06:44:11.523Z,33.50
2019-02-02T06:46:43.749Z,34.50
2019-02-02T06:49:12.696Z,32.47
2019-02-02T06:51:42.580Z,34.53
2019-02-02T06:54:12.265Z,38.70
2019-02-02T06:56:42.240Z,36.07
2019-02-02T06:59:11.637Z,34.30
2019-02-02T07:01:41.133Z,33.10
2019-02-02T07:04:10.669Z,32.43
2019-02-02T07:06:40.316Z,35.35
2019-02-02T07:09:10.497Z,34.10
2019-02-02T07:11:40.158Z,37.50
2019-02-02T07:14:10.067Z,34.30
2019-02-02T07:16:40.771Z,32.80
2019-02-02T07:19:11.872Z,35.50
2019-02-02T07:21:41.346Z,34.33
2019-02-02T07:24:12.189Z,33.70
2019-02-02T07:26:42.446Z,34.27
2019-02-02T07:29:14.705Z,34.83
2019-02-02T07:31:44.721Z,34.38
2019-02-02T07:34:15.113Z,35.03
2019-02-02T07:36:45.708Z,36.03
2019-02-02T07:39:20.576Z,35.73
2019-02-02T07:41:50.375Z,36.50
2019-02-02T07:44:21.266Z,39.13
2019-02-02T07:46:51.811Z,40.53
2019-02-02T07:49:21.436Z,36.93
2019-02-02T07:51:50.921Z,33.63
2019-02-02T07:54:20.891Z,31.95
2019-02-02T07:56:53.553Z,33.60
2019-02-02T07:59:24.961Z,33.50
2019-02-02T08:01:55.362Z,33.87
2019-02-02T08:04:28.723Z,35.03
2019-02-02T08:06:58.084Z,34.80
2019-02-02T08:09:29.722Z,35.47
2019-02-02T08:11:59.421Z,36.73
2019-02-02T08:14:29.718Z,35.00
2019-02-02T08:16:59.181Z,33.05
2019-02-02T08:19:34.666Z,31.67
2019-02-02T08:22:04.652Z,37.48
2019-02-02T08:24:38.566Z,36.67
2019-02-02T08:27:07.066Z,39.50
2019-02-02T08:29:36.897Z,37.75
2019-02-02T08:32:07.111Z,36.80
2019-02-02T08:34:36.421Z,35.57
2019-02-02T08:37:05.978Z,36.40
2019-02-02T08:39:38.690Z,35.03
2019-02-02T08:42:09.875Z,31.73
2019-02-02T08:44:39.859Z,31.40
2019-02-02T08:47:09.921Z,27.80
2019-02-02T08:49:40.490Z,29.40
2019-02-02T08:52:10.535Z,33.40
2019-02-02T08:54:40.429Z,30.17
2019-02-02T08:57:10.309Z,30.20
2019-02-02T08:59:40.728Z,31.50
2019-02-02T09:02:11.020Z,29.97
2019-02-02T09:04:40.511Z,28.40
2019-02-02T09:07:11.104Z,30.13
2019-02-02T09:09:41.186Z,30.10
2019-02-02T09:12:10.535Z,30.40
2019-02-02T09:14:39.956Z,30.20
2019-02-02T09:17:10.200Z,30.23
2019-02-02T09:19:40.084Z,27.97
2019-02-02T09:22:12.233Z,29.40
2019-02-02T09:24:41.949Z,28.20
2019-02-02T09:27:11.430Z,25.53
2019-02-02T09:29:42.328Z,25.27
2019-02-02T09:32:11.937Z,23.87
2019-02-02T09:34:42.266Z,19.50
2019-02-02T09:37:12.791Z,19.17
2019-02-02T09:39:42.172Z,18.83
2019-02-02T09:42:12.276Z,16.40
2019-02-02T09:44:42.284Z,18.50
2019-02-02T09:47:13.358Z,16.97
2019-02-02T09:49:43.433Z,14.30
2019-02-02T09:52:12.905Z,13.90
2019-02-02T09:54:42.274Z,13.40
2019-02-02T09:57:12.111Z,13.50
2019-02-02T09:59:41.644Z,12.33
2019-02-02T10:02:11.482Z,12.80
2019-02-02T10:04:41.672Z,12.53
2019-02-02T10:07:12.736Z,11.28
2019-02-02T10:09:42.056Z,8.50
2019-02-02T10:12:12.651Z,9.20
2019-02-02T10:14:42.759Z,9.77
2019-02-02T10:17:12.125Z,8.03
2019-02-02T10:19:42.181Z,7.97
2019-02-02T10:22:12.182Z,8.70
2019-02-02T10:24:41.965Z,7.60
2019-02-02T10:27:11.353Z,7.73
2019-02-02T10:29:41.125Z,8.27
2019-02-02T10:32:10.722Z,8.00
2019-02-02T10:34:47.397Z,8.83
2019-02-02T10:37:18.065Z,7.63
2019-02-02T10:39:47.509Z,8.60
2019-02-02T10:42:18.979Z,8.40
2019-02-02T10:44:49.191Z,8.20
2019-02-02T10:47:19.141Z,7.80
2019-02-02T10:49:48.490Z,7.23
2019-02-02T10:52:18.181Z,7.92
2019-02-02T10:54:48.860Z,7.20
2019-02-02T10:57:18.693Z,5.97
2019-02-02T10:59:49.052Z,6.62
2019-02-02T11:02:18.910Z,6.43
2019-02-02T11:04:53.442Z,6.17
2019-02-02T11:07:21.253Z,6.63
2019-02-02T11:09:50.584Z,6.97
2019-02-02T11:12:20.568Z,7.43
2019-02-02T11:14:50.713Z,7.50
2019-02-02T11:17:21.624Z,6.15
2019-02-02T11:19:51.693Z,7.53
2019-02-02T11:22:22.873Z,8.00
2019-02-02T11:24:52.423Z,7.60
2019-02-02T11:27:22.580Z,6.40
2019-02-02T11:29:52.594Z,6.20
2019-02-02T11:32:23.025Z,6.22
2019-02-02T11:34:53.520Z,7.40
2019-02-02T11:37:24.432Z,8.00
2019-02-02T11:39:55.068Z,8.60
2019-02-02T11:42:24.941Z,8.70
2019-02-02T11:44:59.069Z,8.50
2019-02-02T11:47:29.468Z,9.10
2019-02-02T11:49:58.843Z,9.50
2019-02-02T11:52:28.416Z,9.30
2019-02-02T11:54:58.285Z,11.73
2019-02-02T11:57:34.086Z,11.87
2019-02-02T12:00:05.578Z,11.40
2019-02-02T12:02:35.229Z,10.63
2019-02-02T12:05:05.738Z,11.20
2019-02-02T12:07:35.494Z,10.08
2019-02-02T12:10:10.038Z,8.47
2019-02-02T12:12:42.103Z,8.97
2019-02-02T12:15:14.981Z,7.97
2019-02-02T12:17:44.343Z,11.20
2019-02-02T12:20:16.122Z,9.73
2019-02-02T12:22:45.824Z,8.20
2019-02-02T12:25:16.904Z,7.60
2019-02-02T12:27:48.029Z,8.17
2019-02-02T12:30:20.746Z,8.20
2019-02-02T12:32:50.126Z,6.90
2019-02-02T12:35:21.612Z,7.40
2019-02-02T12:47:34.800Z,11.37
2019-02-02T12:50:05.124Z,17.37
2019-02-02T12:52:34.525Z,10.55
2019-02-02T12:55:06.309Z,7.97
2019-02-02T12:57:35.704Z,7.03
2019-02-02T13:00:07.122Z,6.30
2019-02-02T13:02:38.506Z,6.20
2019-02-02T13:05:09.041Z,6.93
2019-02-02T13:07:40.692Z,7.53
2019-02-02T13:10:15.029Z,7.50
2019-02-02T13:12:44.764Z,7.97
2019-02-02T13:15:17.902Z,8.60
2019-02-02T13:17:47.856Z,7.37
2019-02-02T13:20:18.113Z,6.96
2019-02-02T13:22:47.732Z,7.10
2019-02-02T13:25:19.770Z,7.54
2019-02-02T13:27:49.140Z,7.97
2019-02-02T13:30:24.487Z,7.35
2019-02-02T13:32:54.735Z,7.63
2019-02-02T13:35:24.460Z,8.30
2019-02-02T13:37:54.599Z,8.33
2019-02-02T13:40:24.744Z,8.30
2019-02-02T13:42:54.490Z,8.30
2019-02-02T13:45:24.193Z,8.00
2019-02-02T13:47:54.221Z,9.37
2019-02-02T13:50:23.809Z,8.87
2019-02-02T13:52:57.099Z,8.93
2019-02-02T13:55:27.894Z,8.70
2019-02-02T13:57:57.832Z,7.73
2019-02-02T14:00:29.992Z,6.43
2019-02-02T14:03:03.242Z,7.90
2019-02-02T14:05:30.833Z,12.70
2019-02-02T14:08:00.462Z,9.83
2019-02-02T14:10:31.237Z,7.80
2019-02-02T14:13:00.721Z,10.43
2019-02-02T14:15:30.104Z,10.28
2019-02-02T14:18:01.270Z,10.80
2019-02-02T14:20:31.179Z,10.70
2019-02-02T14:23:01.782Z,10.90
2019-02-02T14:25:31.396Z,9.63
2019-02-02T14:28:00.797Z,9.03
2019-02-02T14:30:30.169Z,8.73
2019-02-02T14:33:00.168Z,8.27
2019-02-02T14:35:36.829Z,8.40
2019-02-02T14:38:06.713Z,8.20
2019-02-02T14:40:36.577Z,8.60
2019-02-02T14:43:06.317Z,11.90
2019-02-02T14:45:35.708Z,10.13
2019-02-02T14:48:06.328Z,9.83
2019-02-02T14:50:36.091Z,9.95
2019-02-02T14:53:07.280Z,8.77
2019-02-02T14:55:38.465Z,9.23
2019-02-02T14:58:08.275Z,8.37
2019-02-02T15:00:37.682Z,8.58
2019-02-02T15:03:07.607Z,8.88
2019-02-02T15:05:43.016Z,8.63
2019-02-02T15:08:08.573Z,9.47
2019-02-02T15:10:38.534Z,9.33
2019-02-02T15:13:07.867Z,10.57
2019-02-02T15:15:37.249Z,10.40
2019-02-02T15:18:06.867Z,10.90
2019-02-02T15:20:41.245Z,14.33
2019-02-02T15:23:10.703Z,12.37
2019-02-02T15:25:40.717Z,12.70
2019-02-02T15:28:11.127Z,13.00
2019-02-02T15:30:46.415Z,10.83
2019-02-02T15:33:21.621Z,11.38
2019-02-02T15:35:51.306Z,12.33
2019-02-02T15:38:21.936Z,11.53
2019-02-02T15:40:58.846Z,12.67
2019-02-02T15:43:26.066Z,14.10
2019-02-02T15:45:55.544Z,18.10
2019-02-02T15:48:26.477Z,20.03
2019-02-02T15:50:56.481Z,23.60
2019-02-02T15:53:26.199Z,17.27
2019-02-02T15:55:55.769Z,16.97
2019-02-02T15:58:27.880Z,17.90
2019-02-02T16:00:57.264Z,16.10
2019-02-02T16:03:28.140Z,14.10
2019-02-02T16:06:01.987Z,16.93
2019-02-02T16:08:32.378Z,22.80
2019-02-02T16:11:04.971Z,20.80
2019-02-02T16:13:37.726Z,31.95
2019-02-02T16:16:08.189Z,33.02
2019-02-02T16:18:38.860Z,29.47
2019-02-02T16:21:08.425Z,27.90
2019-02-02T16:23:38.346Z,25.00
2019-02-02T16:26:08.305Z,26.07
2019-02-02T16:28:38.098Z,23.43
2019-02-02T16:31:10.026Z,21.63
2019-02-02T16:33:39.493Z,21.83
2019-02-02T16:36:10.027Z,21.70
2019-02-02T16:38:39.989Z,22.90
2019-02-02T16:41:10.977Z,22.20
2019-02-02T16:43:40.312Z,20.53
2019-02-02T16:46:12.571Z,21.57
2019-02-02T16:48:43.829Z,25.30
2019-02-02T16:51:13.201Z,22.30
2019-02-02T16:53:42.624Z,23.27
2019-02-02T16:56:15.145Z,23.00
2019-02-02T16:58:45.118Z,25.67
2019-02-02T17:01:14.899Z,26.67
2019-02-02T17:03:45.214Z,26.10
2019-02-02T17:06:16.130Z,32.73
2019-02-02T17:08:45.513Z,31.87
2019-02-02T17:11:16.823Z,29.82
2019-02-02T17:13:46.196Z,29.87
2019-02-02T17:16:16.211Z,29.12
2019-02-02T17:18:46.443Z,29.83
2019-02-02T17:21:18.316Z,33.23
2019-02-02T17:23:47.939Z,34.97
2019-02-02T17:26:19.671Z,29.18
2019-02-02T17:28:49.591Z,30.27
2019-02-02T17:31:20.101Z,30.73
2019-02-02T17:33:49.548Z,32.83
2019-02-02T17:36:19.862Z,33.90
2019-02-02T17:38:49.536Z,33.83
2019-02-02T17:41:18.945Z,31.77
2019-02-02T17:43:49.124Z,31.97
2019-02-02T17:46:18.519Z,33.70
2019-02-02T17:48:48.696Z,29.63
2019-02-02T17:51:19.054Z,32.08
2019-02-02T17:53:48.465Z,31.30
2019-02-02T17:56:21.755Z,30.75
2019-02-02T17:58:53.902Z,28.97
2019-02-02T18:01:25.889Z,29.08
2019-02-02T18:03:56.318Z,30.77
2019-02-02T18:06:26.667Z,31.37
2019-02-02T18:08:56.689Z,32.88
2019-02-02T18:11:28.396Z,32.40
2019-02-02T18:13:57.889Z,34.40
2019-02-02T18:16:27.286Z,36.53
2019-02-02T18:18:58.263Z,35.57
2019-02-02T18:21:28.377Z,34.50
2019-02-02T18:23:58.815Z,37.47
2019-02-02T18:26:31.395Z,37.07
2019-02-02T18:29:00.857Z,40.13
2019-02-02T18:31:34.537Z,36.57
2019-02-02T18:34:05.297Z,35.40
2019-02-02T18:36:35.625Z,33.80
2019-02-02T18:39:08.515Z,40.90
2019-02-02T18:41:38.246Z,37.13
2019-02-02T18:44:07.811Z,37.30
2019-02-02T18:46:38.183Z,39.20
2019-02-02T18:49:09.419Z,38.47
2019-02-02T18:51:39.582Z,39.60
2019-02-02T18:54:09.652Z,37.73
2019-02-02T18:56:39.212Z,40.23
2019-02-02T18:59:13.235Z,42.67
2019-02-02T19:01:42.592Z,50.43
2019-02-02T19:04:12.365Z,54.63
2019-02-02T19:06:42.069Z,54.47
2019-02-02T19:09:11.548Z,49.63
2019-02-02T19:11:42.144Z,42.87
2019-02-02T19:14:12.058Z,41.33
2019-02-02T19:16:41.808Z,42.23
2019-02-02T19:19:11.297Z,43.85
2019-02-02T19:21:41.113Z,44.17
2019-02-02T19:24:10.514Z,44.90
2019-02-02T19:26:41.909Z,56.60
2019-02-02T19:29:14.887Z,46.90
2019-02-02T19:31:44.276Z,43.63
2019-02-02T19:34:14.149Z,46.77
2019-02-02T19:36:43.780Z,47.17
2019-02-02T19:39:13.780Z,43.60
2019-02-02T19:41:44.381Z,48.40
2019-02-02T19:44:13.765Z,49.43
2019-02-02T19:46:43.845Z,47.78
2019-02-02T19:49:14.037Z,48.23
2019-02-02T19:51:43.424Z,46.57
2019-02-02T19:54:13.140Z,46.13
2019-02-02T19:56:44.508Z,45.03
2019-02-02T19:59:13.605Z,40.97
2019-02-02T20:01:43.288Z,41.03
2019-02-02T20:04:13.113Z,43.63
2019-02-02T20:06:42.509Z,44.43
2019-02-02T20:09:12.196Z,45.87
2019-02-02T20:11:41.616Z,44.27
2019-02-02T20:14:11.095Z,44.43
2019-02-02T20:16:40.488Z,45.23
2019-02-02T20:19:09.908Z,47.10
2019-02-02T20:21:39.861Z,45.67
2019-02-02T20:24:09.216Z,49.20
2019-02-02T20:26:40.095Z,51.10
2019-02-02T20:29:09.980Z,57.50
2019-02-02T20:31:39.362Z,55.10
2019-02-02T20:34:10.429Z,55.40
2019-02-02T20:36:39.912Z,56.80
2019-02-02T20:39:09.744Z,58.83
2019-02-02T20:41:39.171Z,58.83
2019-02-02T20:44:09.040Z,54.73
2019-02-02T20:46:38.445Z,65.70
2019-02-02T20:49:08.312Z,65.83
2019-02-02T20:51:37.653Z,69.83
2019-02-02T20:54:07.410Z,58.87
2019-02-02T20:56:37.887Z,72.00
2019-02-02T20:59:09.913Z,57.40
2019-02-02T21:01:39.344Z,60.00
2019-02-02T21:04:09.584Z,58.00
2019-02-02T21:06:42.595Z,58.83
2019-02-02T21:09:12.381Z,58.53
2019-02-02T21:11:41.825Z,58.13
2019-02-02T21:14:11.224Z,51.68
2019-02-02T21:16:40.638Z,59.73
2019-02-02T21:19:10.809Z,56.13
2019-02-02T21:21:40.701Z,56.70
2019-02-02T21:24:10.772Z,52.50
2019-02-02T21:26:40.744Z,57.60
2019-02-02T21:29:11.073Z,57.15
2019-02-02T21:31:40.534Z,62.73
2019-02-02T21:34:09.969Z,56.90
2019-02-02T21:36:39.517Z,57.40
2019-02-02T21:39:11.054Z,56.00
2019-02-02T21:41:41.547Z,58.10
2019-02-02T21:44:11.472Z,55.03
2019-02-02T21:46:40.876Z,54.20
2019-02-02T21:49:10.309Z,55.10
2019-02-02T21:51:39.837Z,64.00
2019-02-02T21:54:11.240Z,56.57
2019-02-02T21:56:41.097Z,66.43
2019-02-02T21:59:10.481Z,56.07
2019-02-02T22:01:39.869Z,60.30
2019-02-02T22:04:10.405Z,60.90
2019-02-02T22:06:39.944Z,60.10
2019-02-02T22:09:10.073Z,65.53
2019-02-02T22:11:39.504Z,57.07
2019-02-02T22:14:11.145Z,59.30
2019-02-02T22:16:40.622Z,62.50
2019-02-02T22:19:12.756Z,63.33
2019-02-02T22:21:42.709Z,53.80
2019-02-02T22:24:12.067Z,66.85
2019-02-02T22:26:42.215Z,65.63
2019-02-02T22:29:11.533Z,68.10
2019-02-02T22:31:41.774Z,62.60
2019-02-02T22:34:11.293Z,64.67
2019-02-02T22:36:42.261Z,66.37
2019-02-02T22:39:12.071Z,69.77
2019-02-02T22:41:42.044Z,61.03
2019-02-02T22:44:11.975Z,61.70
2019-02-02T22:46:41.427Z,72.67
2019-02-02T22:49:11.150Z,71.33
2019-02-02T22:51:41.220Z,74.97
2019-02-02T22:54:10.603Z,76.00
2019-02-02T22:56:40.267Z,89.03
2019-02-02T22:59:09.863Z,77.40
2019-02-02T23:01:42.304Z,81.00
2019-02-02T23:04:53.388Z,78.87
2019-02-02T23:07:55.912Z,81.37
2019-02-02T23:11:13.647Z,77.53
2019-02-02T23:14:17.231Z,82.37
2019-02-02T23:16:47.092Z,72.00
2019-02-02T23:19:17.177Z,79.87
2019-02-02T23:21:46.625Z,70.70
2019-02-02T23:24:17.631Z,96.55
2019-02-02T23:26:47.101Z,82.25
2019-02-02T23:29:18.393Z,78.12
2019-02-02T23:31:47.968Z,57.63
2019-02-02T23:34:18.095Z,68.62
2019-02-02T23:36:51.397Z,70.60
2019-02-02T23:39:19.973Z,70.57
2019-02-02T23:41:49.366Z,74.27
2019-02-02T23:44:19.020Z,59.10
2019-02-02T23:46:48.608Z,52.60
2019-02-02T23:49:18.093Z,57.17
2019-02-02T23:51:47.548Z,56.17
2019-02-02T23:54:17.226Z,53.80
2019-02-02T23:56:46.708Z,61.07
2019-02-02T23:59:17.133Z,63.85
